sensor_id;sensor_type;location;lat;lon;timestamp;pressure;altitude;pressure_sealevel;temperature;humidity
18436;BME280;9346;52.006;4.720;2022-07-29T00:00:20;101635.38;;;17.60;100.00
18436;BME280;9346;52.006;4.720;2022-07-29T00:02:47;101634.94;;;17.53;100.00
18436;BME280;9346;52.006;4.720;2022-07-29T00:05:14;101634.19;;;17.48;100.00
18436;BME280;9346;52.006;4.720;2022-07-29T00:07:41;101634.53;;;17.41;100.00
18436;BME280;9346;52.006;4.720;2022-07-29T00:10:09;101627.28;;;17.40;100.00
18436;BME280;9346;52.006;4.720;2022-07-29T00:12:36;101631.75;;;17.41;100.00
18436;BME280;9346;52.006;4.720;2022-07-29T00:15:06;101634.59;;;17.36;100.00
18436;BME280;9346;52.006;4.720;2022-07-29T00:17:34;101620.69;;;17.36;100.00
18436;BME280;9346;52.006;4.720;2022-07-29T00:20:02;101624.06;;;17.33;100.00
18436;BME280;9346;52.006;4.720;2022-07-29T00:22:29;101618.59;;;17.28;100.00
18436;BME280;9346;52.006;4.720;2022-07-29T00:24:56;101618.03;;;17.26;100.00
18436;BME280;9346;52.006;4.720;2022-07-29T00:27:23;101613.03;;;17.28;100.00
18436;BME280;9346;52.006;4.720;2022-07-29T00:29:50;101607.66;;;17.32;100.00
18436;BME280;9346;52.006;4.720;2022-07-29T00:32:19;101613.75;;;17.34;100.00
18436;BME280;9346;52.006;4.720;2022-07-29T00:34:46;101614.56;;;17.34;100.00
18436;BME280;9346;52.006;4.720;2022-07-29T00:37:30;101606.00;;;17.31;100.00
18436;BME280;9346;52.006;4.720;2022-07-29T00:39:57;101603.28;;;17.26;100.00
18436;BME280;9346;52.006;4.720;2022-07-29T00:42:24;101604.41;;;17.25;100.00
18436;BME280;9346;52.006;4.720;2022-07-29T00:44:50;101605.31;;;17.20;100.00
18436;BME280;9346;52.006;4.720;2022-07-29T00:47:19;101601.69;;;17.20;100.00
18436;BME280;9346;52.006;4.720;2022-07-29T00:49:46;101597.50;;;17.22;100.00
18436;BME280;9346;52.006;4.720;2022-07-29T00:52:13;101598.09;;;17.19;100.00
18436;BME280;9346;52.006;4.720;2022-07-29T00:54:41;101601.69;;;17.20;100.00
18436;BME280;9346;52.006;4.720;2022-07-29T00:57:08;101596.44;;;17.18;100.00
18436;BME280;9346;52.006;4.720;2022-07-29T00:59:38;101595.69;;;17.13;100.00
18436;BME280;9346;52.006;4.720;2022-07-29T01:02:05;101593.44;;;17.15;100.00
18436;BME280;9346;52.006;4.720;2022-07-29T01:04:33;101601.41;;;17.21;100.00
18436;BME280;9346;52.006;4.720;2022-07-29T01:07:02;101597.25;;;17.19;100.00
18436;BME280;9346;52.006;4.720;2022-07-29T01:09:29;101593.66;;;17.18;100.00
18436;BME280;9346;52.006;4.720;2022-07-29T01:11:58;101593.94;;;17.17;100.00
18436;BME280;9346;52.006;4.720;2022-07-29T01:14:25;101593.50;;;17.10;100.00
18436;BME280;9346;52.006;4.720;2022-07-29T01:16:59;101598.84;;;17.06;100.00
18436;BME280;9346;52.006;4.720;2022-07-29T01:19:51;101594.94;;;17.07;100.00
18436;BME280;9346;52.006;4.720;2022-07-29T01:22:28;101592.44;;;17.06;100.00
18436;BME280;9346;52.006;4.720;2022-07-29T01:25:09;101587.16;;;17.04;100.00
18436;BME280;9346;52.006;4.720;2022-07-29T01:27:47;101592.44;;;17.06;100.00
18436;BME280;9346;52.006;4.720;2022-07-29T01:30:22;101586.63;;;17.02;100.00
18436;BME280;9346;52.006;4.720;2022-07-29T01:32:52;101596.97;;;17.02;100.00
18436;BME280;9346;52.006;4.720;2022-07-29T01:35:24;101587.25;;;16.99;100.00
18436;BME280;9346;52.006;4.720;2022-07-29T01:37:57;101582.00;;;16.98;100.00
18436;BME280;9346;52.006;4.720;2022-07-29T01:40:36;101587.25;;;16.99;100.00
18436;BME280;9346;52.006;4.720;2022-07-29T01:43:11;101582.75;;;17.03;100.00
18436;BME280;9346;52.006;4.720;2022-07-29T01:45:41;101579.66;;;17.05;100.00
18436;BME280;9346;52.006;4.720;2022-07-29T01:48:12;101586.34;;;17.04;100.00
18436;BME280;9346;52.006;4.720;2022-07-29T01:50:46;101581.38;;;17.01;100.00
18436;BME280;9346;52.006;4.720;2022-07-29T01:53:32;101578.06;;;16.99;100.00
18436;BME280;9346;52.006;4.720;2022-07-29T01:56:01;101583.94;;;16.97;100.00
18436;BME280;9346;52.006;4.720;2022-07-29T01:58:31;101575.59;;;16.97;100.00
18436;BME280;9346;52.006;4.720;2022-07-29T02:01:01;101573.41;;;16.94;100.00
18436;BME280;9346;52.006;4.720;2022-07-29T02:03:30;101568.19;;;16.88;100.00
18436;BME280;9346;52.006;4.720;2022-07-29T02:05:59;101570.16;;;16.87;100.00
18436;BME280;9346;52.006;4.720;2022-07-29T02:08:29;101575.63;;;16.92;100.00
18436;BME280;9346;52.006;4.720;2022-07-29T02:10:57;101568.72;;;16.90;100.00
18436;BME280;9346;52.006;4.720;2022-07-29T02:13:27;101571.25;;;16.86;100.00
18436;BME280;9346;52.006;4.720;2022-07-29T02:15:55;101566.53;;;16.87;100.00
18436;BME280;9346;52.006;4.720;2022-07-29T02:18:28;101568.47;;;16.86;100.00
18436;BME280;9346;52.006;4.720;2022-07-29T02:20:58;101565.78;;;16.81;100.00
18436;BME280;9346;52.006;4.720;2022-07-29T02:23:26;101570.22;;;16.82;100.00
18436;BME280;9346;52.006;4.720;2022-07-29T02:25:56;101571.88;;;16.83;100.00
18436;BME280;9346;52.006;4.720;2022-07-29T02:28:25;101570.22;;;16.82;100.00
18436;BME280;9346;52.006;4.720;2022-07-29T02:30:55;101563.84;;;16.82;100.00
18436;BME280;9346;52.006;4.720;2022-07-29T02:33:23;101562.16;;;16.81;100.00
18436;BME280;9346;52.006;4.720;2022-07-29T02:35:52;101562.16;;;16.81;100.00
18436;BME280;9346;52.006;4.720;2022-07-29T02:38:21;101569.09;;;16.83;100.00
18436;BME280;9346;52.006;4.720;2022-07-29T02:41:09;101561.06;;;16.82;100.00
18436;BME280;9346;52.006;4.720;2022-07-29T02:43:37;101558.88;;;16.79;100.00
18436;BME280;9346;52.006;4.720;2022-07-29T02:46:05;101558.63;;;16.75;100.00
18436;BME280;9346;52.006;4.720;2022-07-29T02:48:36;101562.59;;;16.69;100.00
18436;BME280;9346;52.006;4.720;2022-07-29T02:51:09;101562.09;;;16.67;100.00
18436;BME280;9346;52.006;4.720;2022-07-29T02:53:38;101567.09;;;16.65;100.00
18436;BME280;9346;52.006;4.720;2022-07-29T02:56:08;101559.59;;;16.66;100.00
18436;BME280;9346;52.006;4.720;2022-07-29T02:58:40;101554.31;;;16.64;100.00
18436;BME280;9346;52.006;4.720;2022-07-29T03:01:11;101553.25;;;16.60;100.00
18436;BME280;9346;52.006;4.720;2022-07-29T03:03:42;101547.97;;;16.59;100.00
18436;BME280;9346;52.006;4.720;2022-07-29T03:06:13;101546.91;;;16.55;100.00
18436;BME280;9346;52.006;4.720;2022-07-29T03:08:42;101548.34;;;16.52;100.00
18436;BME280;9346;52.006;4.720;2022-07-29T03:11:11;101553.91;;;16.52;100.00
18436;BME280;9346;52.006;4.720;2022-07-29T03:13:39;101558.13;;;16.50;100.00
18436;BME280;9346;52.006;4.720;2022-07-29T03:16:06;101558.41;;;16.48;100.00
18436;BME280;9346;52.006;4.720;2022-07-29T03:18:36;101549.53;;;16.46;100.00
18436;BME280;9346;52.006;4.720;2022-07-29T03:21:03;101545.31;;;16.49;100.00
18436;BME280;9346;52.006;4.720;2022-07-29T03:23:31;101544.81;;;16.47;100.00
18436;BME280;9346;52.006;4.720;2022-07-29T03:25:58;101544.56;;;16.43;100.00
18436;BME280;9346;52.006;4.720;2022-07-29T03:28:26;101542.88;;;16.42;100.00
18436;BME280;9346;52.006;4.720;2022-07-29T03:30:53;101540.09;;;16.42;100.00
18436;BME280;9346;52.006;4.720;2022-07-29T03:33:20;101537.63;;;16.41;100.00
18436;BME280;9346;52.006;4.720;2022-07-29T03:35:47;101539.56;;;16.40;100.00
18436;BME280;9346;52.006;4.720;2022-07-29T03:38:14;101526.50;;;16.41;100.00
18436;BME280;9346;52.006;4.720;2022-07-29T03:40:47;101530.41;;;16.40;100.00
18436;BME280;9346;52.006;4.720;2022-07-29T03:43:16;101536.00;;;16.35;100.00
18436;BME280;9346;52.006;4.720;2022-07-29T03:45:47;101536.59;;;16.32;100.00
18436;BME280;9346;52.006;4.720;2022-07-29T03:48:16;101536.34;;;16.28;100.00
18436;BME280;9346;52.006;4.720;2022-07-29T03:50:44;101532.47;;;16.29;100.00
18436;BME280;9346;52.006;4.720;2022-07-29T03:53:12;101538.03;;;16.29;100.00
18436;BME280;9346;52.006;4.720;2022-07-29T03:55:44;101533.91;;;16.27;100.00
18436;BME280;9346;52.006;4.720;2022-07-29T03:58:13;101535.28;;;16.24;100.00
18436;BME280;9346;52.006;4.720;2022-07-29T04:00:41;101536.97;;;16.25;100.00
18436;BME280;9346;52.006;4.720;2022-07-29T04:03:10;101546.41;;;16.24;100.00
18436;BME280;9346;52.006;4.720;2022-07-29T04:05:37;101537.56;;;16.22;100.00
18436;BME280;9346;52.006;4.720;2022-07-29T04:08:04;101540.63;;;16.21;100.00
18436;BME280;9346;52.006;4.720;2022-07-29T04:10:31;101533.94;;;16.22;100.00
18436;BME280;9346;52.006;4.720;2022-07-29T04:13:00;101535.38;;;16.19;100.00
18436;BME280;9346;52.006;4.720;2022-07-29T04:15:27;101536.53;;;16.13;100.00
18436;BME280;9346;52.006;4.720;2022-07-29T04:17:55;101538.25;;;16.09;100.00
18436;BME280;9346;52.006;4.720;2022-07-29T04:20:22;101540.47;;;16.12;100.00
18436;BME280;9346;52.006;4.720;2022-07-29T04:22:48;101546.81;;;16.13;100.00
18436;BME280;9346;52.006;4.720;2022-07-29T04:25:15;101553.22;;;16.13;100.00
18436;BME280;9346;52.006;4.720;2022-07-29T04:27:42;101543.22;;;16.12;100.00
18436;BME280;9346;52.006;4.720;2022-07-29T04:30:24;101537.91;;;16.16;100.00
18436;BME280;9346;52.006;4.720;2022-07-29T04:32:51;101548.72;;;16.17;100.00
18436;BME280;9346;52.006;4.720;2022-07-29T04:35:18;101549.84;;;16.16;100.00
18436;BME280;9346;52.006;4.720;2022-07-29T04:37:45;101542.03;;;16.18;100.00
18436;BME280;9346;52.006;4.720;2022-07-29T04:40:12;101542.28;;;16.22;100.00
18436;BME280;9346;52.006;4.720;2022-07-29T04:42:39;101545.91;;;16.22;100.00
18436;BME280;9346;52.006;4.720;2022-07-29T04:45:06;101549.75;;;16.26;100.00
18436;BME280;9346;52.006;4.720;2022-07-29T04:47:35;101553.38;;;16.27;100.00
18436;BME280;9346;52.006;4.720;2022-07-29T04:50:02;101548.09;;;16.25;100.00
18436;BME280;9346;52.006;4.720;2022-07-29T04:52:30;101547.47;;;16.28;100.00
18436;BME280;9346;52.006;4.720;2022-07-29T04:54:57;101546.13;;;16.26;100.00
18436;BME280;9346;52.006;4.720;2022-07-29T04:57:24;101548.09;;;16.25;100.00
18436;BME280;9346;52.006;4.720;2022-07-29T04:59:53;101545.81;;;16.27;100.00
18436;BME280;9346;52.006;4.720;2022-07-29T05:02:23;101534.72;;;16.27;100.00
18436;BME280;9346;52.006;4.720;2022-07-29T05:04:51;101540.28;;;16.27;100.00
18436;BME280;9346;52.006;4.720;2022-07-29T05:07:18;101543.88;;;16.28;100.00
18436;BME280;9346;52.006;4.720;2022-07-29T05:09:45;101534.13;;;16.30;100.00
18436;BME280;9346;52.006;4.720;2022-07-29T05:12:12;101536.31;;;16.33;100.00
18436;BME280;9346;52.006;4.720;2022-07-29T05:14:39;101531.88;;;16.32;100.00
18436;BME280;9346;52.006;4.720;2022-07-29T05:17:06;101533.53;;;16.33;100.00
18436;BME280;9346;52.006;4.720;2022-07-29T05:19:33;101543.22;;;16.36;100.00
18436;BME280;9346;52.006;4.720;2022-07-29T05:22:01;101540.44;;;16.36;100.00
18436;BME280;9346;52.006;4.720;2022-07-29T05:24:29;101537.16;;;16.34;100.00
18436;BME280;9346;52.006;4.720;2022-07-29T05:26:56;101549.38;;;16.33;100.00
18436;BME280;9346;52.006;4.720;2022-07-29T05:29:25;101546.38;;;16.29;100.00
18436;BME280;9346;52.006;4.720;2022-07-29T05:31:52;101553.28;;;16.32;100.00
18436;BME280;9346;52.006;4.720;2022-07-29T05:34:19;101549.66;;;16.31;100.00
18436;BME280;9346;52.006;4.720;2022-07-29T05:36:46;101553.28;;;16.32;100.00
18436;BME280;9346;52.006;4.720;2022-07-29T05:39:14;101554.13;;;16.32;100.00
18436;BME280;9346;52.006;4.720;2022-07-29T05:41:41;101557.41;;;16.34;100.00
18436;BME280;9346;52.006;4.720;2022-07-29T05:44:08;101564.66;;;16.35;100.00
18436;BME280;9346;52.006;4.720;2022-07-29T05:46:35;101562.38;;;16.37;100.00
18436;BME280;9346;52.006;4.720;2022-07-29T05:49:02;101567.16;;;16.37;100.00
18436;BME280;9346;52.006;4.720;2022-07-29T05:51:28;101568.19;;;16.41;100.00
18436;BME280;9346;52.006;4.720;2022-07-29T05:53:56;101564.56;;;16.45;100.00
18436;BME280;9346;52.006;4.720;2022-07-29T05:56:27;101558.94;;;16.50;100.00
18436;BME280;9346;52.006;4.720;2022-07-29T05:58:54;101551.13;;;16.52;100.00
18436;BME280;9346;52.006;4.720;2022-07-29T06:01:20;101558.88;;;16.55;100.00
18436;BME280;9346;52.006;4.720;2022-07-29T06:03:47;101562.72;;;16.59;100.00
18436;BME280;9346;52.006;4.720;2022-07-29T06:06:15;101562.09;;;16.67;100.00
18436;BME280;9346;52.006;4.720;2022-07-29T06:08:42;101563.94;;;16.72;100.00
18436;BME280;9346;52.006;4.720;2022-07-29T06:11:09;101571.34;;;16.81;100.00
18436;BME280;9346;52.006;4.720;2022-07-29T06:13:37;101581.00;;;16.89;100.00
18436;BME280;9346;52.006;4.720;2022-07-29T06:16:04;101576.72;;;16.96;100.00
18436;BME280;9346;52.006;4.720;2022-07-29T06:18:31;101570.47;;;17.04;100.00
18436;BME280;9346;52.006;4.720;2022-07-29T06:20:58;101571.38;;;17.18;100.00
18436;BME280;9346;52.006;4.720;2022-07-29T06:23:25;101571.84;;;17.25;100.00
18436;BME280;9346;52.006;4.720;2022-07-29T06:25:52;101572.06;;;17.29;100.00
18436;BME280;9346;52.006;4.720;2022-07-29T06:28:19;101582.00;;;17.35;100.00
18436;BME280;9346;52.006;4.720;2022-07-29T06:30:48;101576.06;;;17.41;100.00
18436;BME280;9346;52.006;4.720;2022-07-29T06:33:17;101582.63;;;17.50;100.00
18436;BME280;9346;52.006;4.720;2022-07-29T06:35:44;101576.38;;;17.58;100.00
18436;BME280;9346;52.006;4.720;2022-07-29T06:38:12;101579.34;;;17.62;100.00
18436;BME280;9346;52.006;4.720;2022-07-29T06:40:41;101578.44;;;17.66;100.00
18436;BME280;9346;52.006;4.720;2022-07-29T06:43:26;101573.94;;;17.70;100.00
18436;BME280;9346;52.006;4.720;2022-07-29T06:45:57;101575.19;;;17.78;100.00
18436;BME280;9346;52.006;4.720;2022-07-29T06:48:24;101582.03;;;17.86;100.00
18436;BME280;9346;52.006;4.720;2022-07-29T06:50:51;101585.47;;;17.96;100.00
18436;BME280;9346;52.006;4.720;2022-07-29T06:53:18;101580.56;;;18.07;100.00
18436;BME280;9346;52.006;4.720;2022-07-29T06:55:45;101587.59;;;18.18;100.00
18436;BME280;9346;52.006;4.720;2022-07-29T06:58:12;101592.38;;;18.31;100.00
18436;BME280;9346;52.006;4.720;2022-07-29T07:00:41;101591.59;;;18.44;100.00
18436;BME280;9346;52.006;4.720;2022-07-29T07:03:09;101589.81;;;18.48;100.00
18436;BME280;9346;52.006;4.720;2022-07-29T07:05:36;101600.91;;;18.53;100.00
18436;BME280;9346;52.006;4.720;2022-07-29T07:08:03;101607.09;;;18.50;100.00
18436;BME280;9346;52.006;4.720;2022-07-29T07:10:30;101599.16;;;18.43;100.00
18436;BME280;9346;52.006;4.720;2022-07-29T07:12:57;101597.59;;;18.37;100.00
18436;BME280;9346;52.006;4.720;2022-07-29T07:15:24;101609.03;;;18.36;100.00
18436;BME280;9346;52.006;4.720;2022-07-29T07:17:51;101607.81;;;18.42;100.00
18436;BME280;9346;52.006;4.720;2022-07-29T07:20:19;101615.28;;;18.46;100.00
18436;BME280;9346;52.006;4.720;2022-07-29T07:22:46;101611.84;;;18.49;100.00
18436;BME280;9346;52.006;4.720;2022-07-29T07:25:13;101618.06;;;18.46;100.00
18436;BME280;9346;52.006;4.720;2022-07-29T07:27:40;101621.16;;;18.45;100.00
18436;BME280;9346;52.006;4.720;2022-07-29T07:30:07;101614.31;;;18.51;100.00
18436;BME280;9346;52.006;4.720;2022-07-29T07:32:35;101626.53;;;18.55;100.00
18436;BME280;9346;52.006;4.720;2022-07-29T07:35:03;101621.69;;;18.60;100.00
18436;BME280;9346;52.006;4.720;2022-07-29T07:37:32;101619.84;;;18.69;100.00
18436;BME280;9346;52.006;4.720;2022-07-29T07:39:59;101614.03;;;18.79;100.00
18436;BME280;9346;52.006;4.720;2022-07-29T07:42:26;101617.47;;;18.90;100.00
18436;BME280;9346;52.006;4.720;2022-07-29T07:44:53;101620.34;;;18.85;100.00
18436;BME280;9346;52.006;4.720;2022-07-29T07:47:23;101619.63;;;18.79;100.00
18436;BME280;9346;52.006;4.720;2022-07-29T07:49:50;101620.88;;;18.87;100.00
18436;BME280;9346;52.006;4.720;2022-07-29T07:52:19;101614.94;;;19.02;100.00
18436;BME280;9346;52.006;4.720;2022-07-29T07:54:48;101614.09;;;19.15;100.00
18436;BME280;9346;52.006;4.720;2022-07-29T07:57:16;101613.59;;;19.26;100.00
18436;BME280;9346;52.006;4.720;2022-07-29T07:59:43;101612.03;;;19.20;100.00
18436;BME280;9346;52.006;4.720;2022-07-29T08:02:09;101615.28;;;19.27;100.00
18436;BME280;9346;52.006;4.720;2022-07-29T08:04:36;101612.56;;;19.36;100.00
18436;BME280;9346;52.006;4.720;2022-07-29T08:07:06;101617.91;;;19.46;100.00
18436;BME280;9346;52.006;4.720;2022-07-29T08:09:33;101622.09;;;19.57;100.00
18436;BME280;9346;52.006;4.720;2022-07-29T08:12:02;101617.56;;;19.61;100.00
18436;BME280;9346;52.006;4.720;2022-07-29T08:14:31;101611.97;;;19.61;100.00
18436;BME280;9346;52.006;4.720;2022-07-29T08:16:58;101618.44;;;19.70;100.00
18436;BME280;9346;52.006;4.720;2022-07-29T08:19:25;101611.19;;;19.69;100.00
18436;BME280;9346;52.006;4.720;2022-07-29T08:21:52;101612.03;;;19.69;100.00
18436;BME280;9346;52.006;4.720;2022-07-29T08:24:19;101619.47;;;19.74;100.00
18436;BME280;9346;52.006;4.720;2022-07-29T08:27:32;101613.09;;;19.82;100.00
18436;BME280;9346;52.006;4.720;2022-07-29T08:29:59;101616.53;;;19.79;100.00
18436;BME280;9346;52.006;4.720;2022-07-29T08:32:26;101612.22;;;19.73;100.00
18436;BME280;9346;52.006;4.720;2022-07-29T08:34:53;101620.59;;;19.73;100.00
18436;BME280;9346;52.006;4.720;2022-07-29T08:37:20;101620.59;;;19.73;100.00
18436;BME280;9346;52.006;4.720;2022-07-29T08:39:47;101622.00;;;19.84;100.00
18436;BME280;9346;52.006;4.720;2022-07-29T08:42:14;101621.94;;;19.98;100.00
18436;BME280;9346;52.006;4.720;2022-07-29T08:44:43;101622.03;;;20.06;100.00
18436;BME280;9346;52.006;4.720;2022-07-29T08:47:13;101629.41;;;20.11;100.00
18436;BME280;9346;52.006;4.720;2022-07-29T08:49:40;101630.19;;;20.16;100.00
18436;BME280;9346;52.006;4.720;2022-07-29T08:52:10;101626.91;;;20.23;100.00
18436;BME280;9346;52.006;4.720;2022-07-29T08:54:38;101628.75;;;20.27;100.00
18436;BME280;9346;52.006;4.720;2022-07-29T08:57:06;101633.28;;;20.37;100.00
18436;BME280;9346;52.006;4.720;2022-07-29T08:59:34;101625.41;;;20.47;100.00
18436;BME280;9346;52.006;4.720;2022-07-29T09:02:03;101617.53;;;20.49;100.00
18436;BME280;9346;52.006;4.720;2022-07-29T09:04:33;101625.09;;;20.49;100.00
18436;BME280;9346;52.006;4.720;2022-07-29T09:07:04;101620.09;;;20.37;100.00
18436;BME280;9346;52.006;4.720;2022-07-29T09:09:33;101611.06;;;20.40;100.00
18436;BME280;9346;52.006;4.720;2022-07-29T09:12:00;101622.47;;;20.52;100.00
18436;BME280;9346;52.006;4.720;2022-07-29T09:14:29;101618.88;;;20.60;100.00
18436;BME280;9346;52.006;4.720;2022-07-29T09:16:56;101622.72;;;20.64;100.00
18436;BME280;9346;52.006;4.720;2022-07-29T09:19:26;101618.25;;;20.72;100.00
18436;BME280;9346;52.006;4.720;2022-07-29T09:21:55;101614.03;;;20.74;100.00
18436;BME280;9346;52.006;4.720;2022-07-29T09:24:24;101616.81;;;20.74;100.00
18436;BME280;9346;52.006;4.720;2022-07-29T09:26:51;101622.25;;;20.79;100.00
18436;BME280;9346;52.006;4.720;2022-07-29T09:29:19;101611.28;;;20.91;100.00
18436;BME280;9346;52.006;4.720;2022-07-29T09:31:48;101610.75;;;20.89;100.00
18436;BME280;9346;52.006;4.720;2022-07-29T09:34:17;101611.66;;;20.98;100.00
18436;BME280;9346;52.006;4.720;2022-07-29T09:36:51;101616.94;;;21.08;100.00
18436;BME280;9346;52.006;4.720;2022-07-29T09:39:27;101612.34;;;21.12;100.00
18436;BME280;9346;52.006;4.720;2022-07-29T09:41:58;101613.03;;;21.18;100.00
18436;BME280;9346;52.006;4.720;2022-07-29T09:44:25;101619.97;;;21.29;100.00
18436;BME280;9346;52.006;4.720;2022-07-29T09:47:03;101615.19;;;21.38;100.00
18436;BME280;9346;52.006;4.720;2022-07-29T09:49:32;101623.28;;;21.48;100.00
18436;BME280;9346;52.006;4.720;2022-07-29T09:52:04;101619.00;;;21.59;100.00
18436;BME280;9346;52.006;4.720;2022-07-29T09:54:33;101616.03;;;21.64;100.00
18436;BME280;9346;52.006;4.720;2022-07-29T09:57:06;101613.56;;;21.71;100.00
18436;BME280;9346;52.006;4.720;2022-07-29T09:59:38;101619.84;;;21.76;100.00
18436;BME280;9346;52.006;4.720;2022-07-29T10:02:11;101615.25;;;21.80;100.00
18436;BME280;9346;52.006;4.720;2022-07-29T10:04:40;101620.69;;;21.85;100.00
18436;BME280;9346;52.006;4.720;2022-07-29T10:07:10;101618.19;;;21.92;100.00
18436;BME280;9346;52.006;4.720;2022-07-29T10:09:37;101620.34;;;21.95;100.00
18436;BME280;9346;52.006;4.720;2022-07-29T10:12:09;101610.28;;;21.94;100.00
18436;BME280;9346;52.006;4.720;2022-07-29T10:14:38;101612.91;;;21.91;100.00
18436;BME280;9346;52.006;4.720;2022-07-29T10:17:07;101611.44;;;21.85;100.00
18436;BME280;9346;52.006;4.720;2022-07-29T10:19:36;101603.03;;;21.76;100.00
18436;BME280;9346;52.006;4.720;2022-07-29T10:22:06;101615.25;;;21.80;100.00
18436;BME280;9346;52.006;4.720;2022-07-29T10:24:36;101620.88;;;21.80;100.00
18436;BME280;9346;52.006;4.720;2022-07-29T10:27:05;101617.03;;;21.85;100.00
18436;BME280;9346;52.006;4.720;2022-07-29T10:29:34;101618.72;;;21.86;100.00
18436;BME280;9346;52.006;4.720;2022-07-29T10:32:15;101617.03;;;21.85;100.00
18436;BME280;9346;52.006;4.720;2022-07-29T10:35:06;101614.25;;;21.93;100.00
18436;BME280;9346;52.006;4.720;2022-07-29T10:37:46;101620.50;;;22.08;100.00
18436;BME280;9346;52.006;4.720;2022-07-29T10:40:28;101611.91;;;22.13;100.00
18436;BME280;9346;52.006;4.720;2022-07-29T10:43:19;101608.09;;;22.26;100.00
18436;BME280;9346;52.006;4.720;2022-07-29T10:45:49;101609.88;;;22.39;100.00
18436;BME280;9346;52.006;4.720;2022-07-29T10:48:22;101614.47;;;22.43;100.00
18436;BME280;9346;52.006;4.720;2022-07-29T10:50:53;101601.41;;;22.47;100.00
18436;BME280;9346;52.006;4.720;2022-07-29T10:53:21;101606.06;;;22.52;100.00
18436;BME280;9346;52.006;4.720;2022-07-29T10:55:50;101607.66;;;22.61;100.00
18436;BME280;9346;52.006;4.720;2022-07-29T10:58:19;101605.16;;;22.68;100.00
18436;BME280;9346;52.006;4.720;2022-07-29T11:00:48;101608.59;;;22.74;100.00
18436;BME280;9346;52.006;4.720;2022-07-29T11:03:42;101596.69;;;22.77;100.00
18436;BME280;9346;52.006;4.720;2022-07-29T11:06:09;101599.81;;;22.84;100.00
18436;BME280;9346;52.006;4.720;2022-07-29T11:08:35;101596.78;;;22.89;100.00
18436;BME280;9346;52.006;4.720;2022-07-29T11:11:38;101599.25;;;22.90;100.00
18436;BME280;9346;52.006;4.720;2022-07-29T11:14:06;101591.84;;;22.86;100.00
18436;BME280;9346;52.006;4.720;2022-07-29T11:17:01;101596.50;;;22.82;100.00
18436;BME280;9346;52.006;4.720;2022-07-29T11:19:29;101594.31;;;22.87;100.00
18436;BME280;9346;52.006;4.720;2022-07-29T11:21:56;101595.25;;;23.00;100.00
18436;BME280;9346;52.006;4.720;2022-07-29T11:24:24;101593.50;;;23.16;100.00
18436;BME280;9346;52.006;4.720;2022-07-29T11:27:12;101590.66;;;23.24;100.00
18436;BME280;9346;52.006;4.720;2022-07-29T11:29:48;101589.69;;;23.41;100.00
18436;BME280;9346;52.006;4.720;2022-07-29T11:32:16;101599.59;;;23.47;100.00
18436;BME280;9346;52.006;4.720;2022-07-29T11:34:45;101599.84;;;23.54;100.00
18436;BME280;9346;52.006;4.720;2022-07-29T11:37:18;101597.03;;;23.54;100.00
18436;BME280;9346;52.006;4.720;2022-07-29T11:39:46;101594.72;;;23.56;100.00
18436;BME280;9346;52.006;4.720;2022-07-29T11:42:38;101597.53;;;23.56;100.00
18436;BME280;9346;52.006;4.720;2022-07-29T11:45:07;101594.72;;;23.56;100.00
18436;BME280;9346;52.006;4.720;2022-07-29T11:47:37;101592.53;;;23.61;100.00
18436;BME280;9346;52.006;4.720;2022-07-29T11:50:07;101599.75;;;23.71;100.00
18436;BME280;9346;52.006;4.720;2022-07-29T11:52:37;101598.91;;;23.70;100.00
18436;BME280;9346;52.006;4.720;2022-07-29T11:55:14;101602.94;;;23.61;100.00
18436;BME280;9346;52.006;4.720;2022-07-29T11:57:50;101598.28;;;23.65;100.00
18436;BME280;9346;52.006;4.720;2022-07-29T12:00:23;101598.06;;;23.70;100.00
18436;BME280;9346;52.006;4.720;2022-07-29T12:02:50;101601.97;;;23.77;100.00
18436;BME280;9346;52.006;4.720;2022-07-29T12:05:18;101609.88;;;23.84;100.00
18436;BME280;9346;52.006;4.720;2022-07-29T12:07:45;101605.31;;;23.91;100.00
18436;BME280;9346;52.006;4.720;2022-07-29T12:10:12;101600.47;;;24.00;100.00
18436;BME280;9346;52.006;4.720;2022-07-29T12:12:39;101593.44;;;24.07;100.00
18436;BME280;9346;52.006;4.720;2022-07-29T12:15:17;101610.59;;;24.14;100.00
18436;BME280;9346;52.006;4.720;2022-07-29T12:17:46;101613.66;;;24.21;100.00
18436;BME280;9346;52.006;4.720;2022-07-29T12:20:14;101610.03;;;24.20;100.00
18436;BME280;9346;52.006;4.720;2022-07-29T12:22:48;101613.81;;;24.24;100.00
18436;BME280;9346;52.006;4.720;2022-07-29T12:25:15;101615.69;;;24.20;100.00
18436;BME280;9346;52.006;4.720;2022-07-29T12:27:44;101614.63;;;24.25;100.00
18436;BME280;9346;52.006;4.720;2022-07-29T12:30:12;101615.94;;;24.27;100.00
18436;BME280;9346;52.006;4.720;2022-07-29T12:32:43;101611.03;;;24.36;100.00
18436;BME280;9346;52.006;4.720;2022-07-29T12:35:12;101613.75;;;24.45;100.00
18436;BME280;9346;52.006;4.720;2022-07-29T12:37:40;101610.63;;;24.58;100.00
18436;BME280;9346;52.006;4.720;2022-07-29T12:40:09;101611.81;;;24.69;100.00
18436;BME280;9346;52.006;4.720;2022-07-29T12:42:36;101611.84;;;24.81;100.00
18436;BME280;9346;52.006;4.720;2022-07-29T12:45:05;101610.09;;;24.89;99.04
18436;BME280;9346;52.006;4.720;2022-07-29T12:47:33;101608.78;;;24.98;98.79
18436;BME280;9346;52.006;4.720;2022-07-29T12:50:12;101609.63;;;24.99;95.81
18436;BME280;9346;52.006;4.720;2022-07-29T12:52:43;101613.22;;;24.99;97.76
18436;BME280;9346;52.006;4.720;2022-07-29T12:55:11;101604.69;;;24.96;97.63
18436;BME280;9346;52.006;4.720;2022-07-29T12:57:45;101607.84;;;24.94;99.72
18436;BME280;9346;52.006;4.720;2022-07-29T13:00:14;101613.72;;;25.01;98.11
18436;BME280;9346;52.006;4.720;2022-07-29T13:02:42;101605.97;;;24.98;94.99